createdAt,value
2019-05-25T00:02:17.328Z,4.40
2019-05-25T00:04:45.875Z,4.40
2019-05-25T00:07:14.432Z,4.37
2019-05-25T00:09:43.059Z,5.00
2019-05-25T00:12:11.604Z,4.10
2019-05-25T00:14:40.142Z,3.73
2019-05-25T00:17:08.697Z,4.00
2019-05-25T00:19:37.236Z,4.77
2019-05-25T00:22:05.871Z,4.27
2019-05-25T00:24:34.411Z,4.50
2019-05-25T00:27:02.969Z,4.10
2019-05-25T00:29:31.592Z,4.40
2019-05-25T00:32:00.144Z,4.80
2019-05-25T00:34:28.675Z,5.23
2019-05-25T00:36:57.241Z,4.60
2019-05-25T00:39:25.847Z,4.87
2019-05-25T00:41:54.447Z,5.07
2019-05-25T00:44:23.011Z,4.63
2019-05-25T00:46:51.548Z,5.07
2019-05-25T00:49:20.122Z,6.60
2019-05-25T00:51:48.712Z,6.60
2019-05-25T00:54:27.434Z,5.47
2019-05-25T00:56:47.592Z,5.73
2019-05-25T00:59:16.218Z,6.47
2019-05-25T01:01:44.752Z,6.40
2019-05-25T01:04:13.313Z,7.10
2019-05-25T01:06:41.848Z,7.17
2019-05-25T01:09:10.444Z,6.50
2019-05-25T01:11:39.054Z,6.53
2019-05-25T01:14:07.659Z,5.53
2019-05-25T01:16:36.238Z,4.90
2019-05-25T01:19:04.816Z,5.47
2019-05-25T01:21:33.453Z,5.67
2019-05-25T01:24:02.139Z,4.73
2019-05-25T01:26:30.691Z,5.47
2019-05-25T01:28:59.231Z,6.10
2019-05-25T01:31:27.927Z,5.00
2019-05-25T01:33:56.479Z,5.60
2019-05-25T01:36:25.021Z,5.20
2019-05-25T01:38:53.585Z,6.70
2019-05-25T01:41:22.115Z,5.80
2019-05-25T01:43:50.679Z,5.63
2019-05-25T01:46:19.222Z,6.10
2019-05-25T01:48:47.781Z,6.37
2019-05-25T01:51:16.318Z,6.37
2019-05-25T01:53:44.944Z,5.00
2019-05-25T01:56:13.557Z,6.40
2019-05-25T01:58:42.103Z,5.90
2019-05-25T02:01:10.705Z,6.10
2019-05-25T02:03:39.262Z,5.77
2019-05-25T02:06:07.797Z,6.57
2019-05-25T02:08:36.428Z,6.40
2019-05-25T02:11:05.063Z,7.13
2019-05-25T02:13:33.594Z,6.40
2019-05-25T02:16:02.175Z,5.90
2019-05-25T02:18:30.686Z,5.63
2019-05-25T02:20:59.323Z,6.33
2019-05-25T02:23:27.863Z,5.60
2019-05-25T02:25:56.485Z,6.60
2019-05-25T02:28:25.098Z,5.90
2019-05-25T02:30:53.719Z,7.23
2019-05-25T02:33:22.253Z,6.77
2019-05-25T02:35:50.883Z,5.27
2019-05-25T02:38:19.422Z,6.60
2019-05-25T02:40:47.968Z,5.67
2019-05-25T02:43:16.571Z,4.93
2019-05-25T02:45:45.199Z,5.70
2019-05-25T02:48:13.800Z,6.70
2019-05-25T02:50:42.422Z,5.10
2019-05-25T02:53:11.055Z,5.60
2019-05-25T02:55:39.575Z,5.60
2019-05-25T02:58:08.191Z,5.80
2019-05-25T03:00:36.804Z,6.90
2019-05-25T03:03:05.606Z,5.60
2019-05-25T03:05:34.321Z,6.43
2019-05-25T03:08:03.017Z,6.17
2019-05-25T03:10:32.388Z,5.60
2019-05-25T03:13:02.670Z,6.10
2019-05-25T03:15:31.346Z,5.57
2019-05-25T03:18:00.054Z,6.17
2019-05-25T03:20:28.582Z,5.13
2019-05-25T03:22:57.162Z,5.47
2019-05-25T03:25:25.847Z,5.55
2019-05-25T03:27:54.401Z,5.83
2019-05-25T03:30:34.374Z,6.37
2019-05-25T03:33:03.053Z,5.77
2019-05-25T03:35:31.931Z,5.87
2019-05-25T03:38:00.636Z,5.63
2019-05-25T03:40:29.179Z,5.20
2019-05-25T03:42:57.821Z,6.05
2019-05-25T03:45:26.352Z,5.60
2019-05-25T03:47:54.918Z,6.40
2019-05-25T03:50:23.610Z,5.87
2019-05-25T03:52:52.223Z,5.47
2019-05-25T03:55:20.928Z,5.85
2019-05-25T03:57:49.470Z,6.45
2019-05-25T04:00:33.006Z,5.58
2019-05-25T04:03:01.606Z,5.37
2019-05-25T04:05:30.308Z,5.80
2019-05-25T04:07:58.927Z,7.15
2019-05-25T04:10:27.553Z,6.12
2019-05-25T04:12:56.159Z,6.07
2019-05-25T04:15:24.968Z,5.12
2019-05-25T04:17:53.569Z,6.20
2019-05-25T04:20:22.204Z,6.97
2019-05-25T04:22:50.808Z,6.13
2019-05-25T04:25:19.513Z,6.97
2019-05-25T04:27:48.112Z,7.37
2019-05-25T04:30:16.828Z,7.43
2019-05-25T04:32:45.393Z,7.23
2019-05-25T04:35:14.563Z,6.00
2019-05-25T04:37:43.128Z,6.27
2019-05-25T04:40:12.107Z,6.53
2019-05-25T04:42:40.734Z,6.23
2019-05-25T04:45:09.630Z,6.23
2019-05-25T04:47:38.158Z,6.30
2019-05-25T04:50:07.674Z,6.97
2019-05-25T04:52:36.276Z,5.90
2019-05-25T04:55:06.070Z,7.00
2019-05-25T04:57:34.611Z,8.37
2019-05-25T05:00:04.337Z,7.00
2019-05-25T05:02:32.937Z,6.73
2019-05-25T05:05:01.537Z,7.43
2019-05-25T05:07:30.028Z,6.03
2019-05-25T05:10:02.473Z,7.03
2019-05-25T05:12:28.911Z,6.37
2019-05-25T05:14:57.450Z,5.57
2019-05-25T05:17:26.015Z,6.87
2019-05-25T05:19:54.551Z,5.73
2019-05-25T05:22:23.124Z,4.43
2019-05-25T05:24:51.671Z,5.40
2019-05-25T05:27:20.225Z,4.27
2019-05-25T05:29:48.694Z,6.00
2019-05-25T05:32:27.069Z,6.23
2019-05-25T05:34:47.515Z,4.90
2019-05-25T05:37:16.152Z,5.40
2019-05-25T05:39:45.352Z,4.67
2019-05-25T05:42:14.591Z,6.27
2019-05-25T05:44:44.910Z,5.73
2019-05-25T05:47:15.190Z,5.40
2019-05-25T05:49:44.501Z,5.57
2019-05-25T05:52:16.229Z,5.07
2019-05-25T05:54:46.717Z,5.20
2019-05-25T05:57:15.254Z,3.43
2019-05-25T05:59:43.805Z,5.07
2019-05-25T06:02:12.351Z,5.43
2019-05-25T06:04:40.959Z,4.73
2019-05-25T06:07:09.587Z,4.23
2019-05-25T06:09:38.257Z,4.40
2019-05-25T06:12:06.962Z,3.90
2019-05-25T06:14:35.543Z,3.80
2019-05-25T06:17:05.484Z,4.37
2019-05-25T06:19:33.965Z,3.50
2019-05-25T06:22:02.543Z,3.73
2019-05-25T06:24:31.259Z,4.40
2019-05-25T06:26:59.791Z,3.70
2019-05-25T06:29:28.351Z,3.83
2019-05-25T06:31:57.025Z,4.30
2019-05-25T06:34:25.657Z,3.97
2019-05-25T06:36:54.179Z,4.10
2019-05-25T06:39:22.804Z,3.90
2019-05-25T06:41:51.293Z,3.67
2019-05-25T06:44:19.855Z,3.90
2019-05-25T06:46:48.476Z,3.40
2019-05-25T06:49:17.011Z,3.20
2019-05-25T06:51:45.558Z,4.67
2019-05-25T06:54:14.091Z,3.07
2019-05-25T06:56:42.670Z,3.70
2019-05-25T06:59:11.198Z,3.80
2019-05-25T07:01:39.964Z,4.17
2019-05-25T07:04:08.499Z,3.60
2019-05-25T07:06:37.076Z,3.43
2019-05-25T07:09:07.242Z,3.20
2019-05-25T07:11:35.795Z,3.30
2019-05-25T07:14:05.166Z,3.77
2019-05-25T07:16:33.721Z,3.40
2019-05-25T07:19:02.247Z,3.80
2019-05-25T07:21:30.780Z,3.43
2019-05-25T07:23:59.418Z,3.40
2019-05-25T07:26:27.961Z,3.30
2019-05-25T07:28:56.754Z,3.80
2019-05-25T07:31:25.589Z,3.53
2019-05-25T07:33:54.135Z,3.43
2019-05-25T07:36:22.731Z,3.00
2019-05-25T07:38:51.287Z,2.97
2019-05-25T07:41:19.826Z,3.57
2019-05-25T07:43:48.462Z,3.57
2019-05-25T07:46:17.437Z,3.43
2019-05-25T07:48:46.183Z,3.63
2019-05-25T07:51:14.808Z,2.80
2019-05-25T07:53:43.341Z,3.30
2019-05-25T07:56:12.336Z,3.60
2019-05-25T07:58:40.948Z,3.00
2019-05-25T08:01:09.570Z,2.80
2019-05-25T08:03:39.896Z,3.23
2019-05-25T08:06:08.313Z,3.20
2019-05-25T08:08:36.848Z,3.20
2019-05-25T08:11:05.497Z,3.20
2019-05-25T08:13:35.254Z,3.87
2019-05-25T08:16:03.879Z,2.77
2019-05-25T08:18:32.413Z,3.07
2019-05-25T08:21:01.143Z,3.40
2019-05-25T08:23:29.919Z,3.50
2019-05-25T08:25:58.481Z,2.97
2019-05-25T08:28:32.629Z,3.00
2019-05-25T08:31:01.070Z,4.87
2019-05-25T08:33:27.417Z,2.93
2019-05-25T08:35:55.947Z,3.43
2019-05-25T08:38:24.511Z,3.10
2019-05-25T08:40:53.036Z,2.90
2019-05-25T08:43:21.591Z,4.00
2019-05-25T08:45:50.131Z,3.20
2019-05-25T08:48:18.760Z,3.03
2019-05-25T08:50:47.372Z,3.30
2019-05-25T08:53:15.929Z,3.93
2019-05-25T08:55:44.482Z,3.50
2019-05-25T08:58:13.039Z,4.20
2019-05-25T09:00:41.767Z,4.40
2019-05-25T09:03:10.480Z,4.20
2019-05-25T09:05:39.070Z,4.27
2019-05-25T09:08:07.709Z,4.93
2019-05-25T09:10:36.313Z,4.40
2019-05-25T09:13:04.946Z,3.87
2019-05-25T09:15:33.559Z,4.50
2019-05-25T09:18:02.168Z,4.60
2019-05-25T09:20:30.747Z,3.87
2019-05-25T09:22:59.469Z,4.10
2019-05-25T09:25:28.094Z,4.10
2019-05-25T09:27:56.711Z,3.87
2019-05-25T09:30:25.410Z,2.87
2019-05-25T09:32:53.955Z,3.90
2019-05-25T09:35:22.656Z,3.50
2019-05-25T09:37:51.217Z,3.47
2019-05-25T09:40:20.111Z,3.20
2019-05-25T09:42:49.032Z,4.00
2019-05-25T09:45:17.908Z,5.03
2019-05-25T09:47:46.475Z,4.30
2019-05-25T09:50:16.007Z,3.00
2019-05-25T09:52:44.536Z,4.00
2019-05-25T09:55:13.927Z,3.07
2019-05-25T09:57:42.557Z,3.07
2019-05-25T10:00:13.154Z,3.40
2019-05-25T10:02:42.471Z,3.60
2019-05-25T10:05:12.124Z,3.83
2019-05-25T10:07:40.769Z,2.90
2019-05-25T10:10:11.220Z,2.63
2019-05-25T10:12:42.783Z,2.43
2019-05-25T10:15:12.182Z,2.27
2019-05-25T10:17:40.873Z,3.20
2019-05-25T10:20:10.384Z,3.10
2019-05-25T10:22:39.016Z,2.70
2019-05-25T10:25:10.067Z,2.87
2019-05-25T10:27:38.695Z,3.20
2019-05-25T10:30:08.564Z,3.30
2019-05-25T10:32:37.122Z,2.53
2019-05-25T10:35:07.303Z,2.43
2019-05-25T10:37:36.289Z,2.60
2019-05-25T10:40:08.773Z,2.80
2019-05-25T10:42:37.352Z,3.10
2019-05-25T10:45:07.911Z,3.17
2019-05-25T10:47:36.508Z,4.07
2019-05-25T10:50:07.705Z,6.57
2019-05-25T10:52:36.243Z,4.60
2019-05-25T10:55:07.239Z,2.60
2019-05-25T10:57:35.798Z,4.00
2019-05-25T11:00:07.796Z,3.47
2019-05-25T11:02:36.314Z,3.33
2019-05-25T11:05:08.749Z,2.30
2019-05-25T11:07:37.376Z,2.90
2019-05-25T11:10:09.563Z,3.10
2019-05-25T11:12:38.183Z,2.60
2019-05-25T11:15:08.069Z,6.10
2019-05-25T11:17:36.776Z,2.70
2019-05-25T11:20:10.365Z,9.23
2019-05-25T11:22:39.047Z,4.17
2019-05-25T11:25:08.740Z,2.80
2019-05-25T11:27:37.457Z,2.47
2019-05-25T11:30:09.998Z,2.47
2019-05-25T11:32:39.121Z,2.50
2019-05-25T11:35:08.214Z,2.57
2019-05-25T11:37:36.898Z,2.43
2019-05-25T11:40:07.589Z,2.17
2019-05-25T11:42:36.216Z,2.60
2019-05-25T11:45:07.126Z,3.17
2019-05-25T11:47:35.746Z,2.43
2019-05-25T11:50:06.809Z,2.23
2019-05-25T11:52:35.494Z,2.53
2019-05-25T11:55:07.106Z,2.30
2019-05-25T11:57:35.915Z,2.57
2019-05-25T12:00:23.826Z,2.93
2019-05-25T12:02:40.142Z,2.83
2019-05-25T12:05:10.226Z,3.40
2019-05-25T12:07:38.858Z,3.27
2019-05-25T12:10:07.965Z,2.70
2019-05-25T12:12:36.529Z,2.90
2019-05-25T12:15:09.682Z,2.87
2019-05-25T12:17:38.244Z,2.40
2019-05-25T12:20:07.614Z,2.20
2019-05-25T12:22:36.242Z,3.33
2019-05-25T12:25:09.508Z,2.83
2019-05-25T12:27:38.071Z,2.80
2019-05-25T12:30:07.344Z,2.70
2019-05-25T12:32:36.045Z,4.30
2019-05-25T12:35:06.617Z,3.20
2019-05-25T12:37:35.246Z,2.43
2019-05-25T12:40:05.325Z,3.60
2019-05-25T12:42:33.935Z,2.47
2019-05-25T12:45:02.611Z,3.70
2019-05-25T12:47:31.157Z,2.80
2019-05-25T12:49:59.899Z,2.60
2019-05-25T12:52:28.489Z,2.90
2019-05-25T12:54:57.014Z,2.50
2019-05-25T12:57:25.555Z,2.43
2019-05-25T12:59:54.166Z,2.83
2019-05-25T13:02:22.857Z,2.60
2019-05-25T13:04:51.394Z,2.47
2019-05-25T13:07:20.020Z,2.67
2019-05-25T13:09:48.602Z,2.40
2019-05-25T13:12:17.127Z,3.00
2019-05-25T13:14:45.676Z,2.83
2019-05-25T13:17:14.207Z,3.10
2019-05-25T13:19:42.840Z,2.53
2019-05-25T13:22:11.380Z,3.03
2019-05-25T13:24:39.998Z,3.50
2019-05-25T13:27:08.819Z,4.13
2019-05-25T13:29:37.379Z,3.37
2019-05-25T13:32:06.057Z,3.67
2019-05-25T13:34:34.612Z,3.80
2019-05-25T13:37:03.308Z,3.97
2019-05-25T13:39:31.931Z,4.23
2019-05-25T13:42:00.459Z,4.10
2019-05-25T13:44:29.091Z,4.10
2019-05-25T13:46:57.640Z,5.43
2019-05-25T13:49:26.765Z,4.20
2019-05-25T13:51:55.376Z,4.53
2019-05-25T13:54:23.931Z,4.90
2019-05-25T13:56:52.539Z,6.30
2019-05-25T13:59:21.148Z,5.23
2019-05-25T14:01:49.713Z,4.80
2019-05-25T14:04:18.252Z,4.43
2019-05-25T14:06:46.811Z,4.37
2019-05-25T14:09:16.054Z,4.00
2019-05-25T14:11:44.716Z,5.33
2019-05-25T14:14:13.250Z,5.60
2019-05-25T14:16:41.850Z,3.80
2019-05-25T14:19:10.407Z,4.27
2019-05-25T14:21:38.948Z,4.30
2019-05-25T14:24:07.583Z,4.90
2019-05-25T14:26:36.116Z,3.30
2019-05-25T14:29:04.921Z,4.30
2019-05-25T14:31:44.857Z,3.77
2019-05-25T14:34:03.737Z,3.47
2019-05-25T14:36:32.276Z,3.33
2019-05-25T14:39:00.813Z,3.60
2019-05-25T14:41:29.455Z,3.40
2019-05-25T14:43:57.983Z,2.83
2019-05-25T14:46:28.170Z,3.50
2019-05-25T14:48:56.807Z,3.57
2019-05-25T14:51:25.362Z,3.43
2019-05-25T14:53:53.903Z,3.20
2019-05-25T14:56:22.455Z,3.53
2019-05-25T14:58:51.085Z,3.40
2019-05-25T15:01:19.627Z,2.90
2019-05-25T15:03:48.167Z,2.57
2019-05-25T15:06:20.689Z,3.20
2019-05-25T15:08:47.049Z,3.40
2019-05-25T15:11:15.609Z,3.03
2019-05-25T15:13:44.155Z,3.20
2019-05-25T15:16:12.696Z,2.77
2019-05-25T15:18:41.253Z,3.07
2019-05-25T15:21:09.783Z,2.90
2019-05-25T15:23:38.353Z,2.87
2019-05-25T15:26:06.962Z,3.70
2019-05-25T15:28:35.507Z,3.33
2019-05-25T15:31:04.121Z,4.13
2019-05-25T15:33:32.752Z,4.10
2019-05-25T15:36:01.342Z,4.33
2019-05-25T15:38:29.967Z,5.03
2019-05-25T15:40:58.548Z,5.57
2019-05-25T15:43:27.107Z,5.07
2019-05-25T15:45:55.665Z,4.70
2019-05-25T15:48:26.377Z,4.30
2019-05-25T15:50:54.569Z,4.57
2019-05-25T15:53:23.191Z,4.50
2019-05-25T15:55:51.734Z,4.63
2019-05-25T15:58:20.258Z,4.07
2019-05-25T16:00:51.086Z,4.17
2019-05-25T16:03:20.839Z,4.10
2019-05-25T16:05:49.925Z,3.97
2019-05-25T16:08:20.014Z,3.67
2019-05-25T16:10:48.928Z,3.87
2019-05-25T16:13:17.624Z,3.70
2019-05-25T16:15:46.269Z,3.30
2019-05-25T16:18:16.055Z,4.03
2019-05-25T16:20:44.617Z,3.87
2019-05-25T16:23:13.292Z,3.53
2019-05-25T16:25:42.000Z,4.03
2019-05-25T16:28:10.589Z,4.10
2019-05-25T16:30:39.321Z,3.40
2019-05-25T16:33:12.591Z,3.40
2019-05-25T16:35:38.243Z,3.53
2019-05-25T16:38:06.962Z,3.53
2019-05-25T16:40:36.175Z,3.63
2019-05-25T16:43:04.848Z,3.67
2019-05-25T16:45:33.555Z,2.90
2019-05-25T16:48:02.172Z,3.80
2019-05-25T16:50:30.687Z,4.13
2019-05-25T16:52:59.245Z,3.93
2019-05-25T16:55:27.945Z,4.40
2019-05-25T16:57:56.635Z,4.13
2019-05-25T17:00:29.417Z,4.10
2019-05-25T17:02:59.012Z,3.90
2019-05-25T17:05:28.275Z,4.07
2019-05-25T17:07:57.241Z,4.10
2019-05-25T17:10:25.992Z,4.00
2019-05-25T17:12:54.524Z,3.17
2019-05-25T17:15:23.232Z,4.33
2019-05-25T17:17:51.856Z,4.33
2019-05-25T17:20:20.742Z,3.23
2019-05-25T17:22:49.280Z,4.30
2019-05-25T17:25:18.491Z,4.13
2019-05-25T17:27:47.020Z,3.17
2019-05-25T17:30:18.989Z,4.60
2019-05-25T17:32:47.521Z,3.70
2019-05-25T17:35:16.297Z,4.20
2019-05-25T17:37:44.985Z,3.63
2019-05-25T17:40:13.862Z,4.57
2019-05-25T17:42:42.484Z,5.30
2019-05-25T17:45:11.160Z,5.90
2019-05-25T17:47:39.716Z,5.00
2019-05-25T17:50:08.535Z,6.20
2019-05-25T17:52:37.103Z,6.80
2019-05-25T17:55:07.174Z,6.43
2019-05-25T17:57:35.769Z,7.53
2019-05-25T18:00:07.240Z,6.60
2019-05-25T18:02:35.842Z,5.67
2019-05-25T18:05:06.743Z,5.70
2019-05-25T18:07:35.413Z,6.00
2019-05-25T18:10:07.029Z,7.57
2019-05-25T18:12:35.635Z,7.20
2019-05-25T18:15:09.412Z,6.90
2019-05-25T18:17:38.027Z,7.87
2019-05-25T18:20:10.608Z,8.63
2019-05-25T18:22:39.127Z,8.13
2019-05-25T18:25:08.440Z,7.40
2019-05-25T18:27:37.470Z,8.70
2019-05-25T18:30:08.779Z,8.17
2019-05-25T18:32:37.311Z,9.27
2019-05-25T18:35:07.606Z,8.83
2019-05-25T18:37:36.217Z,9.00
2019-05-25T18:40:08.159Z,9.10
2019-05-25T18:42:36.940Z,10.67
2019-05-25T18:45:09.560Z,10.13
2019-05-25T18:47:38.236Z,9.20
2019-05-25T18:50:14.248Z,8.93
2019-05-25T18:52:42.871Z,9.60
2019-05-25T18:55:11.848Z,10.17
2019-05-25T18:57:40.410Z,9.50
2019-05-25T19:00:09.692Z,10.63
2019-05-25T19:02:38.396Z,10.27
2019-05-25T19:05:08.085Z,9.60
2019-05-25T19:07:36.707Z,10.10
2019-05-25T19:10:11.982Z,10.57
2019-05-25T19:12:40.609Z,9.93
2019-05-25T19:15:09.989Z,11.10
2019-05-25T19:17:39.443Z,10.53
2019-05-25T19:20:09.699Z,10.47
2019-05-25T19:22:38.377Z,11.10
2019-05-25T19:25:10.404Z,9.30
2019-05-25T19:27:39.027Z,10.10
2019-05-25T19:30:09.152Z,10.20
2019-05-25T19:32:37.800Z,9.50
2019-05-25T19:35:06.969Z,9.37
2019-05-25T19:37:35.535Z,9.20
2019-05-25T19:40:09.575Z,9.50
2019-05-25T19:42:38.446Z,10.10
2019-05-25T19:45:08.944Z,9.40
2019-05-25T19:47:37.561Z,8.90
2019-05-25T19:50:07.972Z,8.97
2019-05-25T19:52:36.568Z,9.10
2019-05-25T19:55:09.346Z,9.00
2019-05-25T19:57:37.977Z,7.50
2019-05-25T20:00:07.866Z,7.67
2019-05-25T20:02:36.558Z,8.40
2019-05-25T20:05:16.484Z,7.90
2019-05-25T20:07:39.040Z,8.60
2019-05-25T20:10:08.628Z,9.50
2019-05-25T20:12:37.168Z,8.73
2019-05-25T20:15:10.129Z,8.87
2019-05-25T20:17:38.665Z,7.77
2019-05-25T20:20:07.665Z,7.83
2019-05-25T20:22:36.352Z,8.20
2019-05-25T20:25:08.396Z,7.57
2019-05-25T20:27:36.932Z,8.10
2019-05-25T20:30:07.695Z,8.73
2019-05-25T20:32:36.244Z,7.10
2019-05-25T20:35:06.847Z,7.37
2019-05-25T20:37:35.397Z,7.60
2019-05-25T20:40:08.285Z,8.30
2019-05-25T20:42:37.058Z,9.40
2019-05-25T20:45:08.910Z,8.37
2019-05-25T20:47:37.538Z,9.20
2019-05-25T20:50:07.832Z,8.70
2019-05-25T20:52:36.381Z,8.63
2019-05-25T20:55:08.496Z,10.47
2019-05-25T20:57:37.677Z,9.23
2019-05-25T21:00:07.128Z,9.70
2019-05-25T21:02:35.755Z,9.07
2019-05-25T21:05:06.245Z,10.03
2019-05-25T21:07:34.786Z,9.40
2019-05-25T21:10:05.388Z,9.00
2019-05-25T21:12:33.987Z,9.53
2019-05-25T21:15:02.549Z,9.80
2019-05-25T21:17:31.083Z,10.00
2019-05-25T21:19:59.644Z,8.93
2019-05-25T21:22:28.267Z,9.10
2019-05-25T21:24:56.900Z,9.50
2019-05-25T21:27:25.447Z,8.70
2019-05-25T21:29:54.155Z,9.87
2019-05-25T21:32:23.098Z,9.07
2019-05-25T21:34:51.783Z,8.70
2019-05-25T21:37:20.404Z,12.43
2019-05-25T21:39:49.022Z,9.27
2019-05-25T21:42:17.566Z,9.27
2019-05-25T21:44:46.212Z,9.53
2019-05-25T21:47:14.739Z,9.90
2019-05-25T21:49:43.302Z,9.43
2019-05-25T21:52:11.915Z,8.70
2019-05-25T21:54:40.471Z,8.53
2019-05-25T21:57:09.523Z,8.80
2019-05-25T21:59:38.137Z,7.83
2019-05-25T22:02:07.062Z,9.23
2019-05-25T22:04:35.653Z,7.87
2019-05-25T22:07:04.322Z,9.63
2019-05-25T22:09:32.885Z,8.37
2019-05-25T22:12:01.477Z,7.20
2019-05-25T22:14:30.108Z,8.03
2019-05-25T22:16:59.690Z,8.80
2019-05-25T22:19:28.303Z,7.53
2019-05-25T22:21:56.846Z,8.30
2019-05-25T22:24:25.469Z,8.77
2019-05-25T22:26:54.015Z,7.33
2019-05-25T22:29:22.587Z,9.30
2019-05-25T22:31:51.119Z,9.07
2019-05-25T22:34:19.658Z,8.33
2019-05-25T22:36:48.219Z,7.90
2019-05-25T22:39:16.837Z,8.60
2019-05-25T22:41:45.391Z,7.10
2019-05-25T22:44:13.932Z,8.63
2019-05-25T22:46:42.487Z,8.40
2019-05-25T22:49:11.053Z,6.60
2019-05-25T22:51:39.585Z,7.20
2019-05-25T22:54:08.203Z,7.33
2019-05-25T22:56:36.826Z,7.53
2019-05-25T22:59:05.287Z,6.33
2019-05-25T23:01:33.924Z,7.03
2019-05-25T23:04:02.452Z,7.70
2019-05-25T23:06:31.052Z,6.80
2019-05-25T23:08:59.623Z,7.20
2019-05-25T23:11:28.151Z,6.87
2019-05-25T23:13:56.703Z,7.17
2019-05-25T23:16:25.245Z,7.53
2019-05-25T23:18:53.798Z,6.83
2019-05-25T23:21:22.505Z,6.63
2019-05-25T23:23:51.085Z,6.83
2019-05-25T23:26:19.676Z,6.37
2019-05-25T23:28:48.296Z,6.93
2019-05-25T23:31:16.939Z,7.57
2019-05-25T23:33:45.466Z,7.53
2019-05-25T23:36:14.179Z,5.73
2019-05-25T23:38:42.694Z,7.70
2019-05-25T23:41:11.260Z,7.07
2019-05-25T23:43:39.795Z,6.90
2019-05-25T23:46:08.422Z,7.40
2019-05-25T23:48:36.964Z,8.73
2019-05-25T23:51:05.594Z,7.50
2019-05-25T23:53:34.129Z,6.57
2019-05-25T23:56:02.672Z,7.30
2019-05-25T23:58:31.226Z,6.60
